Time;durP1;ratioP1;P1;durP2;ratioP2;P2;SDS_P1;SDS_P2;PMS_P1;PMS_P2;Temp;Humidity;BMP_temperature;BMP_pressure;BME280_temperature;BME280_humidity;BME280_pressure;Samples;Min_cycle;Max_cycle;Signal;HPM_P1;HPM_P2
2022/04/27 00:00:34;;;;;;;2.33;1.70;;;17.70;64.50;;;;;;5058912;28;20174;-92
2022/04/27 00:03:02;;;;;;;2.13;1.93;;;17.70;64.50;;;;;;5058466;28;20485;-91
2022/04/27 00:05:28;;;;;;;2.30;1.93;;;17.70;64.30;;;;;;5056792;28;20181;-91
2022/04/27 00:07:54;;;;;;;2.30;2.10;;;17.70;64.30;;;;;;5057844;28;20173;-91
2022/04/27 00:10:20;;;;;;;2.40;2.00;;;17.70;64.30;;;;;;5058626;28;20174;-92
2022/04/27 00:12:46;;;;;;;2.37;1.93;;;17.60;64.20;;;;;;5057137;28;20251;-92
2022/04/27 00:15:12;;;;;;;2.10;1.90;;;17.60;64.10;;;;;;5057583;28;20185;-92
2022/04/27 00:17:39;;;;;;;2.60;2.00;;;17.60;64.10;;;;;;5058030;28;20409;-91
2022/04/27 00:20:07;;;;;;;1.70;1.60;;;17.60;64.10;;;;;;5058612;28;20196;-91
2022/04/27 00:22:33;;;;;;;2.23;2.03;;;17.60;63.90;;;;;;5075849;28;20204;-92
2022/04/27 00:25:03;;;;;;;3.00;2.10;;;17.60;63.80;;;;;;5058635;28;20234;-92
2022/04/27 00:27:31;;;;;;;1.80;1.70;;;17.60;63.60;;;;;;5058923;28;20569;-91
2022/04/27 00:29:57;;;;;;;1.90;1.77;;;17.60;63.50;;;;;;5058652;28;20455;-92
2022/04/27 00:32:23;;;;;;;2.53;1.80;;;17.60;63.50;;;;;;5056886;28;20527;-92
2022/04/27 00:34:49;;;;;;;1.90;1.80;;;17.60;64.20;;;;;;5056212;28;20733;-92
2022/04/27 00:37:16;;;;;;;2.33;1.63;;;17.60;63.50;;;;;;5058063;28;20235;-91
2022/04/27 00:39:42;;;;;;;2.20;2.00;;;17.60;63.40;;;;;;5057153;28;20173;-92
2022/04/27 00:42:15;;;;;;;2.17;1.97;;;17.50;63.20;;;;;;5057095;28;20267;-91
2022/04/27 00:44:43;;;;;;;2.30;2.10;;;17.50;63.20;;;;;;5057010;28;20170;-92
2022/04/27 00:47:10;;;;;;;1.73;1.63;;;17.50;63.20;;;;;;5056677;28;20169;-91
2022/04/27 00:49:36;;;;;;;2.03;1.83;;;17.50;63.20;;;;;;5057364;28;20181;-91
2022/04/27 00:52:02;;;;;;;2.40;2.00;;;17.50;63.20;;;;;;5057082;28;20170;-91
2022/04/27 00:54:28;;;;;;;2.10;1.90;;;17.50;63.10;;;;;;5057813;28;20421;-91
2022/04/27 00:56:54;;;;;;;2.10;1.90;;;17.50;63.10;;;;;;5057793;28;20173;-90
2022/04/27 00:59:20;;;;;;;1.83;1.50;;;17.50;63.00;;;;;;5058088;28;20180;-91
2022/04/27 01:01:46;;;;;;;1.80;1.70;;;17.50;62.80;;;;;;5057952;28;20278;-91
2022/04/27 01:04:11;;;;;;;1.83;1.73;;;17.50;62.90;;;;;;5055652;28;20224;-91
2022/04/27 01:06:39;;;;;;;2.80;1.80;;;17.40;62.80;;;;;;5056714;28;20168;-91
2022/04/27 01:14:08;;;;;;;1.83;1.73;;;17.40;62.90;;;;;;5052557;28;20498;-15
2022/04/27 01:16:34;;;;;;;1.70;1.60;;;17.40;62.90;;;;;;5054820;28;20345;-15
2022/04/27 01:19:00;;;;;;;1.70;1.60;;;17.40;62.80;;;;;;5055875;28;20182;-18
2022/04/27 01:21:26;;;;;;;2.37;2.00;;;17.40;62.60;;;;;;5056284;28;20184;-16
2022/04/27 01:23:53;;;;;;;1.87;1.63;;;17.40;62.60;;;;;;5055173;28;20204;-14
2022/04/27 01:26:19;;;;;;;2.53;1.90;;;17.40;62.40;;;;;;5054840;28;20265;-15
2022/04/27 01:28:45;;;;;;;2.00;1.80;;;17.40;62.20;;;;;;5055323;28;20262;-18
2022/04/27 01:31:12;;;;;;;1.67;1.57;;;17.40;62.20;;;;;;5055708;28;20187;-16
2022/04/27 01:33:38;;;;;;;1.80;1.63;;;17.30;62.20;;;;;;5055493;28;20516;-18
2022/04/27 01:36:38;;;;;;;2.40;1.80;;;17.30;62.80;;;;;;5056045;28;20455;-15
2022/04/27 01:39:04;;;;;;;1.73;1.50;;;17.30;62.20;;;;;;5053959;28;20622;-17
2022/04/27 01:41:29;;;;;;;1.73;1.63;;;17.30;62.00;;;;;;5054258;28;20569;-16
2022/04/27 01:43:57;;;;;;;1.73;1.63;;;17.30;61.90;;;;;;5054613;28;20259;-15
2022/04/27 01:46:26;;;;;;;2.20;1.63;;;17.30;61.70;;;;;;5058920;28;20220;-14
2022/04/27 01:48:52;;;;;;;1.83;1.63;;;17.30;61.70;;;;;;5042008;28;20175;-16
2022/04/27 01:51:18;;;;;;;1.67;1.57;;;17.30;61.60;;;;;;5040132;28;20179;-14
2022/04/27 01:56:29;;;;;;;1.67;1.57;;;17.30;61.60;;;;;;5056341;28;20183;-14
2022/04/27 01:58:55;;;;;;;1.80;1.70;;;17.30;61.50;;;;;;5039640;28;20178;-16
2022/04/27 02:01:21;;;;;;;1.83;1.67;;;17.30;61.50;;;;;;5057028;28;20447;-17
2022/04/27 02:03:47;;;;;;;2.20;1.60;;;17.30;61.40;;;;;;5057231;28;20220;-15
2022/04/27 02:06:16;;;;;;;1.93;1.70;;;17.30;61.40;;;;;;5040652;28;20182;-15
2022/04/27 02:08:42;;;;;;;1.73;1.63;;;17.20;61.20;;;;;;5056398;28;20218;-16
2022/04/27 02:11:08;;;;;;;1.60;1.50;;;17.30;61.20;;;;;;5039803;28;20169;-15
2022/04/27 02:13:34;;;;;;;1.80;1.70;;;17.30;61.10;;;;;;5040511;28;20200;-15
2022/04/27 02:16:01;;;;;;;2.03;1.83;;;17.20;61.00;;;;;;5040666;28;20182;-16
2022/04/27 02:18:27;;;;;;;1.87;1.70;;;17.20;61.10;;;;;;5058264;28;20252;-16
2022/04/27 02:20:52;;;;;;;1.90;1.70;;;17.20;61.00;;;;;;5058108;28;20198;-16
2022/04/27 02:23:20;;;;;;;1.70;1.60;;;17.20;60.80;;;;;;5057698;28;20576;-15
2022/04/27 02:25:46;;;;;;;1.77;1.60;;;17.20;60.80;;;;;;5055813;28;20211;-16
2022/04/27 02:28:12;;;;;;;2.53;1.50;;;17.20;60.80;;;;;;5057516;28;20221;-14
2022/04/27 02:30:38;;;;;;;2.10;1.60;;;17.20;60.60;;;;;;5057995;28;20182;-16
2022/04/27 02:33:03;;;;;;;2.50;1.73;;;17.20;60.40;;;;;;5041292;28;20177;-16
2022/04/27 02:35:29;;;;;;;1.97;1.70;;;17.20;60.40;;;;;;5058081;28;20178;-15
2022/04/27 02:37:56;;;;;;;1.87;1.70;;;17.20;60.30;;;;;;5041063;28;20172;-15
2022/04/27 02:40:22;;;;;;;2.33;2.13;;;17.10;60.20;;;;;;5058058;28;20165;-15
2022/04/27 02:42:49;;;;;;;1.80;1.60;;;17.10;60.00;;;;;;5039918;28;20204;-16
2022/04/27 02:45:15;;;;;;;1.80;1.70;;;17.20;60.00;;;;;;5039784;28;20277;-16
2022/04/27 02:47:40;;;;;;;1.83;1.70;;;17.10;59.90;;;;;;5040384;28;20274;-18
2022/04/27 02:52:51;;;;;;;2.03;1.60;;;17.10;59.90;;;;;;5057568;28;20266;-16
2022/04/27 02:55:16;;;;;;;1.73;1.63;;;17.10;59.80;;;;;;5039176;28;20265;-14
2022/04/27 02:57:42;;;;;;;2.00;1.73;;;17.10;59.70;;;;;;5056792;28;20174;-15
2022/04/27 03:00:09;;;;;;;2.00;1.80;;;17.10;60.20;;;;;;5039777;28;20186;-14
2022/04/27 03:02:35;;;;;;;1.70;1.60;;;17.00;59.70;;;;;;5057123;28;20197;-15
2022/04/27 03:05:00;;;;;;;2.93;1.80;;;17.00;59.70;;;;;;5056633;28;20268;-20
2022/04/27 03:07:28;;;;;;;1.93;1.73;;;17.00;59.80;;;;;;5057443;28;20174;-14
2022/04/27 03:09:55;;;;;;;2.63;1.77;;;16.90;59.70;;;;;;5039366;28;20266;-15
2022/04/27 03:12:20;;;;;;;1.90;1.70;;;17.00;59.70;;;;;;5056491;28;20509;-14
2022/04/27 03:14:46;;;;;;;2.20;1.67;;;16.90;59.60;;;;;;5056606;28;20213;-16
2022/04/27 03:17:13;;;;;;;1.53;1.43;;;16.90;59.60;;;;;;5039443;28;20583;-16
2022/04/27 03:19:39;;;;;;;1.70;1.60;;;16.90;59.60;;;;;;5057846;28;20169;-14
2022/04/27 03:22:05;;;;;;;2.40;1.67;;;16.90;59.50;;;;;;5055889;28;20180;-15
2022/04/27 03:24:30;;;;;;;1.80;1.60;;;16.90;59.40;;;;;;5039108;28;20446;-14
2022/04/27 03:26:56;;;;;;;2.47;1.53;;;16.90;59.30;;;;;;5056759;28;20204;-16
2022/04/27 03:29:22;;;;;;;1.67;1.57;;;16.90;59.40;;;;;;5038272;28;20197;-17
2022/04/27 03:31:47;;;;;;;1.63;1.53;;;16.90;59.40;;;;;;5056627;28;20453;-14
2022/04/27 03:34:13;;;;;;;2.33;1.43;;;16.90;59.20;;;;;;5038986;28;20187;-15
2022/04/27 03:36:39;;;;;;;1.63;1.53;;;16.90;59.20;;;;;;5038291;28;20286;-17
2022/04/27 03:39:05;;;;;;;2.40;1.60;;;16.80;59.20;;;;;;5038081;28;20230;-14
2022/04/27 03:41:30;;;;;;;1.90;1.67;;;16.80;59.20;;;;;;5057075;28;20187;-14
2022/04/27 03:43:56;;;;;;;1.70;1.60;;;16.80;59.20;;;;;;5055022;28;20198;-19
2022/04/27 03:46:22;;;;;;;2.00;1.67;;;16.80;59.30;;;;;;5054770;28;20528;-18
2022/04/27 03:48:48;;;;;;;1.77;1.67;;;16.80;59.20;;;;;;5055027;28;20208;-15
2022/04/27 03:51:14;;;;;;;2.10;1.80;;;16.80;59.20;;;;;;5055757;28;20175;-18
2022/04/27 03:53:39;;;;;;;1.70;1.60;;;16.80;59.20;;;;;;5037033;28;20584;-15
2022/04/27 03:56:06;;;;;;;2.47;1.50;;;16.70;59.10;;;;;;5054975;28;20335;-15
2022/04/27 03:58:32;;;;;;;2.17;1.77;;;16.70;59.60;;;;;;5038284;28;20192;-15
2022/04/27 04:00:58;;;;;;;1.60;1.50;;;16.80;59.20;;;;;;5036659;28;20179;-18
2022/04/27 04:03:24;;;;;;;2.10;1.80;;;16.80;59.20;;;;;;5053644;28;20212;-20
2022/04/27 04:05:50;;;;;;;2.00;1.60;;;16.80;59.20;;;;;;5053754;28;20173;-17
2022/04/27 04:08:15;;;;;;;2.47;1.60;;;16.70;59.10;;;;;;5053124;28;20185;-15
2022/04/27 04:10:41;;;;;;;1.70;1.60;;;16.80;59.20;;;;;;5037154;28;20191;-15
2022/04/27 04:13:07;;;;;;;1.90;1.70;;;16.70;59.10;;;;;;5054804;28;20281;-17
2022/04/27 04:15:37;;;;;;;1.77;1.60;;;16.70;59.00;;;;;;5054315;28;20260;-15
2022/04/27 04:18:03;;;;;;;1.87;1.53;;;16.80;59.00;;;;;;5037525;28;20302;-16
2022/04/27 04:20:29;;;;;;;1.70;1.60;;;16.70;58.90;;;;;;5054301;28;20194;-14
2022/04/27 04:22:55;;;;;;;2.07;1.47;;;16.80;58.90;;;;;;5054538;28;20212;-15
2022/04/27 04:30:49;;;;;;;1.57;1.47;;;16.80;58.80;;;;;;5054395;28;20500;-15
2022/04/27 04:33:15;;;;;;;1.50;1.40;;;16.80;58.80;;;;;;5054584;28;20539;-15
2022/04/27 04:35:40;;;;;;;1.70;1.60;;;16.80;58.60;;;;;;5053099;28;20176;-18
2022/04/27 04:38:06;;;;;;;1.53;1.43;;;16.80;58.60;;;;;;5052733;28;20440;-18
2022/04/27 04:40:33;;;;;;;3.00;1.70;;;16.80;58.50;;;;;;5052902;28;20180;-16
2022/04/27 04:42:59;;;;;;;1.93;1.70;;;16.80;58.50;;;;;;5053559;28;20442;-17
2022/04/27 04:45:25;;;;;;;1.83;1.60;;;16.80;58.40;;;;;;5035056;28;20209;-16
2022/04/27 04:47:51;;;;;;;1.60;1.50;;;16.70;58.40;;;;;;5053181;28;20559;-16
2022/04/27 04:50:17;;;;;;;2.03;1.70;;;16.80;58.30;;;;;;5035595;28;20360;-18
2022/04/27 04:52:45;;;;;;;2.00;1.60;;;16.70;58.30;;;;;;5051338;28;20201;-15
2022/04/27 04:55:12;;;;;;;1.70;1.60;;;16.80;58.30;;;;;;5051712;28;20160;-18
2022/04/27 04:57:37;;;;;;;2.03;1.60;;;16.80;58.30;;;;;;5035477;28;20262;-16
2022/04/27 05:02:36;;;;;;;1.50;1.40;;;16.80;58.20;;;;;;5075699;22;20457;-15
2022/04/27 05:05:03;;;;;;;1.93;1.73;;;16.70;58.20;;;;;;5072408;28;20189;-19
2022/04/27 05:07:30;;;;;;;3.10;1.60;;;16.70;58.20;;;;;;5054209;28;20179;-16
2022/04/27 05:09:56;;;;;;;1.57;1.43;;;16.70;58.10;;;;;;5054214;28;20226;-16
2022/04/27 05:12:23;;;;;;;1.97;1.70;;;16.70;58.10;;;;;;5054194;28;20184;-18
2022/04/27 05:14:49;;;;;;;2.83;1.50;;;16.70;58.20;;;;;;5053353;28;20173;-16
2022/04/27 05:17:15;;;;;;;1.60;1.50;;;16.70;58.10;;;;;;5070562;28;20757;-18
2022/04/27 05:19:41;;;;;;;2.43;1.50;;;16.80;58.10;;;;;;5050729;28;20319;-18
2022/04/27 05:22:06;;;;;;;2.53;1.57;;;16.80;58.20;;;;;;5052693;28;20548;-16
2022/04/27 05:24:32;;;;;;;3.43;1.50;;;16.80;58.00;;;;;;5069503;28;20225;-15
2022/04/27 05:26:58;;;;;;;2.17;1.37;;;16.90;58.30;;;;;;5071452;28;20161;-18
2022/04/27 05:32:27;;;;;;;2.47;1.60;;;16.90;58.20;;;;;;4993377;28;20277;-19
2022/04/27 05:34:53;;;;;;;2.70;1.40;;;17.00;58.20;;;;;;4993741;28;20240;-15
2022/04/27 05:37:20;;;;;;;1.70;1.60;;;17.00;58.50;;;;;;4994063;28;20188;-19
2022/04/27 05:39:46;;;;;;;3.53;1.57;;;17.00;58.40;;;;;;5005995;28;20759;-16
2022/04/27 05:42:11;;;;;;;3.90;1.70;;;17.10;58.70;;;;;;5075012;28;20214;-19
2022/04/27 05:44:37;;;;;;;1.60;1.50;;;17.10;58.70;;;;;;5057501;28;20217;-15
2022/04/27 05:47:04;;;;;;;3.27;1.67;;;17.20;58.80;;;;;;5075001;28;20172;-17
2022/04/27 05:49:31;;;;;;;5.53;1.60;;;17.20;58.80;;;;;;5056989;28;20256;-19
2022/04/27 05:51:57;;;;;;;2.33;1.67;;;17.30;58.50;;;;;;5074682;28;20205;-16
2022/04/27 05:54:24;;;;;;;1.73;1.63;;;17.30;58.50;;;;;;5058007;28;20586;-18
2022/04/27 05:56:49;;;;;;;2.13;1.70;;;17.30;58.20;;;;;;5075322;28;20170;-17
2022/04/27 05:59:15;;;;;;;4.27;1.90;;;17.40;58.20;;;;;;5057128;28;20177;-19
2022/04/27 06:01:41;;;;;;;3.97;1.87;;;17.40;58.00;;;;;;5057810;28;20192;-16
2022/04/27 06:04:07;;;;;;;3.20;1.70;;;17.50;57.80;;;;;;5075364;28;20210;-18
2022/04/27 06:06:33;;;;;;;2.50;1.90;;;17.50;57.60;;;;;;5074697;28;20200;-18
2022/04/27 06:08:59;;;;;;;2.30;1.70;;;17.60;57.50;;;;;;5057491;28;20266;-20
2022/04/27 06:11:24;;;;;;;2.83;1.50;;;17.70;57.40;;;;;;5075113;28;20189;-16
2022/04/27 06:13:50;;;;;;;2.43;1.60;;;17.70;57.50;;;;;;5075194;28;20264;-16
2022/04/27 06:16:16;;;;;;;2.23;1.77;;;17.80;57.30;;;;;;5057079;28;20288;-15
2022/04/27 06:18:45;;;;;;;2.80;1.80;;;17.90;57.10;;;;;;5074745;28;20163;-19
2022/04/27 06:21:11;;;;;;;3.20;2.10;;;17.90;57.00;;;;;;5075614;28;20173;-16
2022/04/27 06:23:40;;;;;;;2.73;2.00;;;18.00;57.00;;;;;;5057010;28;20202;-19
2022/04/27 06:26:06;;;;;;;4.63;2.17;;;18.00;56.70;;;;;;5075116;28;20172;-17
2022/04/27 06:28:33;;;;;;;4.23;2.07;;;18.10;56.70;;;;;;5057319;28;20735;-17
2022/04/27 06:30:59;;;;;;;3.33;2.20;;;18.10;56.60;;;;;;5076097;28;20230;-16
2022/04/27 06:33:25;;;;;;;3.70;2.00;;;18.20;56.80;;;;;;5061650;28;20179;-19
2022/04/27 06:35:50;;;;;;;2.10;1.83;;;18.30;56.70;;;;;;5061081;28;20179;-16
2022/04/27 06:38:18;;;;;;;3.43;2.33;;;18.30;56.30;;;;;;5060975;28;20171;-18
2022/04/27 06:40:44;;;;;;;3.40;2.10;;;18.50;56.00;;;;;;5078105;28;20167;-19
2022/04/27 06:43:10;;;;;;;4.03;2.00;;;18.70;55.40;;;;;;5079132;28;20292;-19
2022/04/27 06:45:36;;;;;;;3.33;2.27;;;19.00;54.70;;;;;;5061752;28;20167;-18
2022/04/27 06:48:05;;;;;;;3.33;2.20;;;19.10;54.10;;;;;;5078877;28;20180;-21
2022/04/27 06:50:31;;;;;;;2.20;1.90;;;19.30;53.70;;;;;;5077564;28;20168;-19
2022/04/27 06:53:00;;;;;;;3.00;1.90;;;19.40;53.40;;;;;;5078292;28;20425;-20
2022/04/27 06:55:26;;;;;;;4.20;2.53;;;19.50;53.10;;;;;;5077943;28;20169;-19
2022/04/27 06:57:53;;;;;;;3.83;2.10;;;19.60;52.80;;;;;;5078348;28;20180;-16
2022/04/27 07:00:18;;;;;;;2.97;2.30;;;19.60;52.60;;;;;;5078247;28;20574;-17
2022/04/27 07:02:44;;;;;;;3.00;2.10;;;19.70;52.70;;;;;;5060531;28;20216;-16
2022/04/27 07:05:17;;;;;;;3.27;2.30;;;19.80;52.10;;;;;;5077530;28;20179;-19
2022/04/27 07:07:44;;;;;;;3.50;2.20;;;19.90;51.90;;;;;;5076958;28;20233;-16
2022/04/27 07:10:11;;;;;;;5.00;2.10;;;19.90;51.70;;;;;;5077463;28;20167;-20
2022/04/27 07:12:37;;;;;;;4.63;2.40;;;20.00;51.50;;;;;;5076762;28;20557;-18
2022/04/27 07:15:04;;;;;;;4.03;2.10;;;20.10;51.40;;;;;;5078120;28;20237;-20
2022/04/27 07:17:30;;;;;;;3.57;2.20;;;20.20;51.20;;;;;;5076613;28;20241;-19
2022/04/27 07:19:58;;;;;;;3.60;2.40;;;20.20;51.00;;;;;;5059064;28;20172;-21
2022/04/27 07:22:23;;;;;;;3.23;2.00;;;20.30;51.00;;;;;;5060555;28;20211;-19
2022/04/27 07:24:49;;;;;;;3.57;2.50;;;20.40;50.80;;;;;;5078059;28;20210;-20
2022/04/27 07:27:16;;;;;;;3.00;2.20;;;20.40;50.70;;;;;;5059038;28;20184;-20
2022/04/27 07:29:48;;;;;;;3.33;2.20;;;20.50;50.60;;;;;;5076621;28;20691;-18
2022/04/27 07:32:13;;;;;;;4.07;2.43;;;20.60;50.60;;;;;;5077225;28;20163;-20
2022/04/27 07:34:40;;;;;;;3.57;2.10;;;20.60;50.40;;;;;;5076703;28;20270;-22
2022/04/27 07:37:05;;;;;;;4.13;2.30;;;20.70;50.30;;;;;;5075289;28;20171;-16
2022/04/27 07:39:32;;;;;;;3.50;2.20;;;20.80;50.20;;;;;;5076378;28;20168;-21
2022/04/27 07:41:58;;;;;;;3.83;2.57;;;20.80;50.10;;;;;;5074529;28;20274;-21
2022/04/27 07:44:24;;;;;;;4.27;2.33;;;20.90;49.90;;;;;;5059165;28;20302;-21
2022/04/27 07:46:50;;;;;;;3.07;2.30;;;21.00;49.90;;;;;;5058972;28;20163;-19
2022/04/27 07:49:21;;;;;;;3.67;2.30;;;21.00;50.10;;;;;;5076472;28;20172;-18
2022/04/27 07:51:50;;;;;;;2.77;2.40;;;21.10;49.60;;;;;;5059453;28;20505;-18
2022/04/27 07:54:16;;;;;;;4.00;2.73;;;21.20;49.60;;;;;;5059359;28;20580;-20
2022/04/27 07:56:42;;;;;;;3.03;2.30;;;21.30;49.50;;;;;;5076400;28;20187;-19
2022/04/27 07:59:10;;;;;;;3.50;2.50;;;21.30;49.30;;;;;;5076418;28;20579;-21
2022/04/27 08:01:36;;;;;;;3.57;2.30;;;21.40;49.20;;;;;;5059062;28;20198;-21
2022/04/27 08:04:02;;;;;;;3.87;2.50;;;21.50;49.20;;;;;;5076390;28;20199;-18
2022/04/27 08:06:27;;;;;;;3.70;2.57;;;21.50;49.00;;;;;;5076871;28;20586;-20
2022/04/27 08:08:55;;;;;;;4.03;2.50;;;21.50;48.90;;;;;;5058840;28;20172;-18
2022/04/27 08:11:22;;;;;;;4.17;2.40;;;21.60;48.80;;;;;;5076084;28;20171;-19
2022/04/27 08:13:48;;;;;;;3.13;2.30;;;21.60;48.80;;;;;;5076918;28;20182;-20
2022/04/27 08:16:13;;;;;;;3.20;2.30;;;21.70;48.70;;;;;;5076324;28;20172;-19
2022/04/27 08:18:40;;;;;;;3.60;2.60;;;21.70;48.60;;;;;;5075855;28;20245;-23
2022/04/27 08:21:15;;;;;;;3.70;2.43;;;21.80;48.60;;;;;;5058617;28;20237;-19
2022/04/27 08:23:45;;;;;;;4.10;2.20;;;21.90;48.60;;;;;;5076617;28;20210;-21
2022/04/27 08:26:12;;;;;;;3.23;2.30;;;21.90;48.40;;;;;;5056839;28;20164;-21
2022/04/27 08:28:39;;;;;;;3.77;2.40;;;22.00;48.30;;;;;;5075469;28;20164;-20
2022/04/27 08:31:06;;;;;;;3.83;2.40;;;22.10;48.20;;;;;;5076823;28;20473;-21
2022/04/27 08:33:32;;;;;;;4.37;2.50;;;22.10;48.20;;;;;;5075747;28;20178;-19
2022/04/27 08:35:59;;;;;;;2.80;2.40;;;22.20;48.10;;;;;;5058803;28;20175;-19
2022/04/27 08:38:25;;;;;;;2.97;2.60;;;22.20;48.40;;;;;;5058498;28;20182;-22
2022/04/27 08:40:51;;;;;;;4.20;2.50;;;22.30;48.00;;;;;;5075961;28;20203;-22
2022/04/27 08:43:21;;;;;;;3.67;2.45;;;22.40;48.00;;;;;;5074768;28;20292;-20
2022/04/27 08:45:47;;;;;;;4.57;2.70;;;22.40;47.90;;;;;;5075559;28;20171;-24
2022/04/27 08:48:16;;;;;;;2.73;2.10;;;22.50;47.80;;;;;;5075910;28;20175;-21
2022/04/27 08:50:43;;;;;;;3.73;2.40;;;22.60;47.80;;;;;;5057202;28;20175;-22
2022/04/27 08:53:09;;;;;;;2.97;2.40;;;22.60;47.60;;;;;;5074709;28;20180;-20
2022/04/27 08:55:36;;;;;;;3.83;2.58;;;22.70;47.60;;;;;;5058400;28;20244;-21
2022/04/27 08:58:09;;;;;;;3.90;2.33;;;22.70;47.50;;;;;;5076303;28;20168;-20
2022/04/27 09:00:36;;;;;;;4.15;2.17;;;22.80;47.40;;;;;;5058631;28;20711;-20
2022/04/27 09:03:25;;;;;;;3.63;2.20;;;22.80;47.30;;;;;;5058795;28;20276;-21
2022/04/27 09:05:53;;;;;;;3.97;2.70;;;22.90;47.30;;;;;;5075492;28;20196;-19
2022/04/27 09:08:23;;;;;;;2.53;2.28;;;23.00;47.20;;;;;;5075384;28;20156;-21
2022/04/27 09:10:48;;;;;;;3.13;2.20;;;23.00;47.10;;;;;;5075216;28;20174;-21
2022/04/27 09:13:14;;;;;;;3.63;2.10;;;23.10;47.10;;;;;;5074261;28;20175;-25
2022/04/27 09:15:41;;;;;;;4.03;2.45;;;23.10;47.00;;;;;;5057515;28;20287;-21
2022/04/27 09:21:01;;;;;;;3.25;2.20;;;23.20;46.80;;;;;;5075168;28;20183;-20
2022/04/27 09:23:38;;;;;;;2.92;2.10;;;23.30;46.80;;;;;;5057162;28;20207;-21
2022/04/27 09:26:44;;;;;;;3.08;2.30;;;23.30;46.70;;;;;;5075593;28;20163;-21
2022/04/27 09:29:26;;;;;;;3.45;2.50;;;23.40;46.60;;;;;;5055924;28;20624;-21
2022/04/27 09:31:58;;;;;;;3.88;2.42;;;23.40;46.50;;;;;;5057753;28;20690;-21
2022/04/27 09:34:28;;;;;;;3.78;2.50;;;23.50;46.40;;;;;;5057309;28;20179;-21
2022/04/27 09:36:55;;;;;;;3.08;2.22;;;23.50;46.40;;;;;;5074685;28;20172;-22
2022/04/27 09:39:27;;;;;;;2.97;2.50;;;23.50;46.40;;;;;;5057858;28;20176;-20
2022/04/27 09:42:06;;;;;;;3.10;2.45;;;23.40;46.40;;;;;;5057444;28;20273;-20
2022/04/27 09:44:41;;;;;;;4.30;2.28;;;23.40;46.40;;;;;;5057412;28;20226;-22
2022/04/27 09:47:08;;;;;;;2.70;2.10;;;23.30;46.50;;;;;;5075067;28;20471;-21
2022/04/27 09:49:41;;;;;;;2.28;2.08;;;22.90;46.70;;;;;;5057412;28;20229;-23
2022/04/27 09:52:07;;;;;;;3.17;2.10;;;22.60;47.10;;;;;;5074010;28;20262;-22
2022/04/27 09:54:36;;;;;;;4.38;2.50;;;22.20;47.50;;;;;;5057354;28;20270;-21
2022/04/27 09:57:05;;;;;;;2.28;2.05;;;22.00;47.90;;;;;;5076054;28;20229;-22
2022/04/27 09:59:34;;;;;;;2.42;2.10;;;21.70;48.30;;;;;;5058778;28;20176;-21
2022/04/27 10:02:04;;;;;;;2.50;2.10;;;21.60;48.70;;;;;;5075984;28;20175;-21
2022/04/27 10:04:30;;;;;;;3.20;2.10;;;21.40;48.90;;;;;;5075904;28;20516;-20
2022/04/27 10:06:58;;;;;;;2.78;2.00;;;21.30;49.20;;;;;;5060963;28;20258;-20
2022/04/27 10:09:25;;;;;;;3.13;2.30;;;21.30;49.40;;;;;;5061752;28;20199;-21
2022/04/27 10:11:53;;;;;;;2.95;2.10;;;21.20;49.60;;;;;;5061313;28;20171;-20
2022/04/27 10:14:21;;;;;;;4.70;2.30;;;21.20;49.70;;;;;;5061548;28;20277;-21
2022/04/27 10:16:48;;;;;;;2.13;1.88;;;21.10;49.80;;;;;;5061327;28;20175;-19
2022/04/27 10:19:15;;;;;;;3.25;2.13;;;21.10;49.90;;;;;;5077176;28;20447;-20
2022/04/27 10:22:05;;;;;;;2.15;1.92;;;21.10;50.00;;;;;;5077817;28;20270;-19
2022/04/27 10:24:33;;;;;;;2.58;2.00;;;21.10;50.00;;;;;;5078220;28;20195;-21
2022/04/27 10:27:26;;;;;;;2.23;1.80;;;21.10;50.20;;;;;;5076926;28;20175;-22
2022/04/27 10:30:00;;;;;;;3.67;2.23;;;21.10;50.20;;;;;;5077475;28;20184;-20
2022/04/27 10:32:42;;;;;;;2.50;1.90;;;21.10;50.20;;;;;;5077625;28;20176;-20
2022/04/27 10:35:19;;;;;;;3.73;2.33;;;21.00;50.30;;;;;;5060341;28;20236;-20
2022/04/27 10:37:59;;;;;;;3.77;2.17;;;21.00;50.30;;;;;;5060295;28;20163;-20
2022/04/27 10:40:29;;;;;;;2.10;1.90;;;21.00;50.30;;;;;;5077356;28;20494;-21
2022/04/27 10:43:01;;;;;;;2.90;2.20;;;21.00;50.80;;;;;;5060176;28;20235;-19
2022/04/27 10:45:28;;;;;;;3.90;2.20;;;21.00;50.50;;;;;;5077297;28;20254;-21
2022/04/27 10:47:53;;;;;;;2.73;2.07;;;21.00;50.50;;;;;;5077297;28;20225;-21
2022/04/27 10:50:23;;;;;;;2.33;2.07;;;21.00;50.50;;;;;;5059607;28;20207;-18
2022/04/27 10:52:52;;;;;;;3.27;2.27;;;21.00;50.60;;;;;;5060098;28;20260;-20
2022/04/27 10:55:40;;;;;;;3.87;2.00;;;21.00;50.60;;;;;;5077310;28;20175;-19
2022/04/27 10:58:30;;;;;;;3.40;2.30;;;21.00;50.70;;;;;;5076889;28;20171;-20
2022/04/27 11:00:58;;;;;;;2.87;2.30;;;21.00;50.70;;;;;;5076521;28;20387;-20
2022/04/27 11:03:25;;;;;;;3.53;2.10;;;21.00;50.70;;;;;;5076131;28;20272;-20
2022/04/27 11:05:52;;;;;;;3.13;2.03;;;21.00;50.70;;;;;;5076716;28;20175;-18
2022/04/27 11:08:36;;;;;;;3.37;2.60;;;21.00;50.70;;;;;;5076112;28;20173;-17
2022/04/27 11:11:07;;;;;;;5.60;2.13;;;21.00;50.80;;;;;;5076538;28;20174;-20
2022/04/27 11:13:37;;;;;;;2.33;1.80;;;21.10;50.90;;;;;;5058865;28;20566;-21
2022/04/27 11:16:10;;;;;;;5.50;2.23;;;21.00;51.00;;;;;;5058832;28;20185;-18
2022/04/27 11:18:58;;;;;;;3.67;2.10;;;21.00;51.00;;;;;;5075685;28;20198;-19
2022/04/27 11:21:28;;;;;;;2.90;2.07;;;21.00;51.20;;;;;;5076987;28;20265;-21
2022/04/27 11:23:55;;;;;;;3.37;2.20;;;21.00;51.30;;;;;;5059127;28;20204;-18
2022/04/27 11:26:22;;;;;;;2.53;2.07;;;21.00;51.50;;;;;;5058851;28;20593;-17
2022/04/27 11:28:48;;;;;;;3.93;2.33;;;21.00;51.50;;;;;;5076509;28;20638;-17
2022/04/27 11:31:16;;;;;;;3.17;2.30;;;21.00;51.60;;;;;;5076059;28;20179;-20
2022/04/27 11:33:42;;;;;;;5.07;2.10;;;21.00;51.60;;;;;;5059350;28;20272;-18
2022/04/27 11:36:21;;;;;;;5.70;2.20;;;21.00;51.60;;;;;;5059021;28;20178;-18
2022/04/27 11:38:47;;;;;;;3.67;2.03;;;21.00;51.70;;;;;;5059541;28;20170;-16
2022/04/27 11:41:25;;;;;;;5.10;2.10;;;21.00;51.80;;;;;;5043057;28;20237;-20
2022/04/27 11:43:54;;;;;;;5.33;2.13;;;21.00;51.80;;;;;;5058937;28;20215;-21
2022/04/27 11:46:20;;;;;;;6.27;2.20;;;21.00;51.80;;;;;;5076628;28;20565;-20
2022/04/27 11:48:49;;;;;;;3.87;2.30;;;21.10;51.90;;;;;;5076943;28;20183;-19
2022/04/27 11:51:15;;;;;;;3.80;2.47;;;21.10;51.90;;;;;;5076098;28;20171;-17
2022/04/27 11:53:49;;;;;;;4.10;2.20;;;21.10;51.90;;;;;;5076032;28;20254;-18
2022/04/27 11:56:16;;;;;;;3.13;2.27;;;21.10;51.80;;;;;;5076928;28;20179;-21
2022/04/27 11:58:45;;;;;;;3.83;2.00;;;21.10;51.80;;;;;;5057767;28;20172;-15
2022/04/27 12:01:19;;;;;;;4.13;2.30;;;21.10;51.80;;;;;;5075227;28;20176;-19
2022/04/27 12:03:45;;;;;;;2.77;2.00;;;21.10;51.80;;;;;;5057832;28;20787;-19
2022/04/27 12:06:18;;;;;;;3.43;2.20;;;21.10;51.80;;;;;;5075688;28;20609;-16
2022/04/27 12:08:43;;;;;;;3.63;2.20;;;21.10;51.80;;;;;;5057396;28;20211;-20
2022/04/27 12:11:09;;;;;;;2.67;2.27;;;21.10;51.70;;;;;;5075540;28;20213;-18
2022/04/27 12:13:35;;;;;;;2.80;2.07;;;21.10;51.90;;;;;;5075799;28;20246;-17
2022/04/27 12:16:03;;;;;;;3.90;2.03;;;21.10;51.90;;;;;;5075359;28;20171;-17
2022/04/27 12:18:29;;;;;;;3.63;2.30;;;21.10;51.90;;;;;;5058383;28;20171;-20
2022/04/27 12:20:56;;;;;;;2.60;1.93;;;21.10;51.90;;;;;;5057713;28;20595;-17
2022/04/27 12:23:25;;;;;;;1.93;1.70;;;21.10;52.00;;;;;;5057943;28;20307;-21
2022/04/27 12:26:01;;;;;;;2.43;2.00;;;21.10;52.00;;;;;;5075365;28;20171;-21
2022/04/27 12:28:44;;;;;;;2.53;1.90;;;21.10;52.10;;;;;;5056930;28;20156;-20
2022/04/27 12:31:10;;;;;;;3.07;2.40;;;21.10;52.10;;;;;;5057980;28;20174;-18
2022/04/27 12:33:37;;;;;;;2.37;1.93;;;21.10;52.10;;;;;;5074700;28;20180;-22
2022/04/27 12:39:08;;;;;;;3.37;2.50;;;21.10;52.10;;;;;;5074915;28;20197;-22
2022/04/27 12:41:45;;;;;;;3.27;2.40;;;21.10;52.10;;;;;;5075456;28;20217;-17
2022/04/27 12:44:36;;;;;;;4.40;2.07;;;21.20;52.10;;;;;;5075434;28;20227;-19
2022/04/27 12:47:07;;;;;;;2.30;1.90;;;21.10;52.10;;;;;;5057669;28;20179;-17
2022/04/27 12:49:37;;;;;;;4.30;2.20;;;21.10;52.10;;;;;;5075970;28;20168;-20
2022/04/27 12:52:21;;;;;;;3.10;2.17;;;21.10;52.10;;;;;;5056975;28;20241;-17
2022/04/27 12:54:50;;;;;;;5.43;2.63;;;21.10;52.10;;;;;;5057989;28;20270;-18
2022/04/27 12:57:16;;;;;;;4.90;2.27;;;21.10;52.10;;;;;;5074017;28;20737;-18
2022/04/27 13:00:00;;;;;;;5.30;2.23;;;21.10;52.20;;;;;;5057602;28;20244;-17
2022/04/27 13:02:27;;;;;;;5.83;2.50;;;21.10;52.30;;;;;;5057892;28;20191;-17
2022/04/27 13:04:53;;;;;;;5.93;2.30;;;21.10;52.50;;;;;;5058668;28;20211;-20
2022/04/27 13:07:20;;;;;;;4.43;2.23;;;21.10;52.50;;;;;;5057444;28;20267;-16
2022/04/27 13:12:35;;;;;;;2.90;1.97;;;21.20;52.60;;;;;;5075115;28;20322;-18
2022/04/27 13:15:02;;;;;;;4.73;2.40;;;21.20;52.60;;;;;;5074244;28;20172;-18
2022/04/27 13:17:28;;;;;;;3.47;2.07;;;21.20;52.60;;;;;;5074960;28;20163;-18
2022/04/27 13:19:54;;;;;;;4.50;2.23;;;21.20;52.60;;;;;;5057281;28;20540;-17
2022/04/27 13:22:19;;;;;;;5.87;2.27;;;21.20;52.60;;;;;;5056959;28;20179;-18